sensor_id;sensor_type;location;lat;lon;timestamp;pressure;altitude;pressure_sealevel;temperature;humidity
11038;BME280;5572;49.540;11.932;2023-03-13T00:00:46;96343.72;;;6.23;100.00
11038;BME280;5572;49.540;11.932;2023-03-13T00:03:14;96355.81;;;6.25;100.00
11038;BME280;5572;49.540;11.932;2023-03-13T00:05:40;96350.97;;;6.17;100.00
11038;BME280;5572;49.540;11.932;2023-03-13T00:08:07;96365.72;;;6.20;100.00
11038;BME280;5572;49.540;11.932;2023-03-13T00:10:35;96360.34;;;6.15;100.00
11038;BME280;5572;49.540;11.932;2023-03-13T00:13:02;96373.78;;;6.20;100.00
11038;BME280;5572;49.540;11.932;2023-03-13T00:15:29;96363.00;;;6.05;100.00
11038;BME280;5572;49.540;11.932;2023-03-13T00:17:55;96357.91;;;5.94;100.00
11038;BME280;5572;49.540;11.932;2023-03-13T00:20:23;96359.50;;;5.95;100.00
11038;BME280;5572;49.540;11.932;2023-03-13T00:22:50;96335.25;;;5.70;100.00
11038;BME280;5572;49.540;11.932;2023-03-13T00:25:16;96347.88;;;5.74;100.00
11038;BME280;5572;49.540;11.932;2023-03-13T00:27:43;96353.03;;;5.81;100.00
11038;BME280;5572;49.540;11.932;2023-03-13T00:30:10;96369.13;;;5.81;100.00
11038;BME280;5572;49.540;11.932;2023-03-13T00:32:39;96360.00;;;5.82;100.00
11038;BME280;5572;49.540;11.932;2023-03-13T00:35:07;96349.00;;;5.78;100.00
11038;BME280;5572;49.540;11.932;2023-03-13T00:37:35;96346.88;;;5.90;100.00
11038;BME280;5572;49.540;11.932;2023-03-13T00:40:01;96331.84;;;5.79;100.00
11038;BME280;5572;49.540;11.932;2023-03-13T00:42:29;96336.72;;;5.92;100.00
11038;BME280;5572;49.540;11.932;2023-03-13T00:44:55;96333.75;;;5.89;100.00
11038;BME280;5572;49.540;11.932;2023-03-13T00:47:22;96335.34;;;5.90;100.00
11038;BME280;5572;49.540;11.932;2023-03-13T00:49:48;96323.81;;;5.89;100.00
11038;BME280;5572;49.540;11.932;2023-03-13T00:52:15;96322.72;;;5.80;100.00
11038;BME280;5572;49.540;11.932;2023-03-13T00:54:43;96321.44;;;6.07;100.00
11038;BME280;5572;49.540;11.932;2023-03-13T00:57:10;96323.03;;;5.98;100.00
11038;BME280;5572;49.540;11.932;2023-03-13T00:59:36;96322.78;;;6.00;100.00
11038;BME280;5572;49.540;11.932;2023-03-13T01:02:03;96323.84;;;5.99;100.00
11038;BME280;5572;49.540;11.932;2023-03-13T01:04:29;96335.34;;;5.90;100.00
11038;BME280;5572;49.540;11.932;2023-03-13T01:06:56;96331.88;;;6.04;100.00
11038;BME280;5572;49.540;11.932;2023-03-13T01:09:22;96334.31;;;5.96;100.00
11038;BME280;5572;49.540;11.932;2023-03-13T01:11:50;96343.13;;;5.91;100.00
11038;BME280;5572;49.540;11.932;2023-03-13T01:14:18;96340.47;;;6.06;100.00
11038;BME280;5572;49.540;11.932;2023-03-13T01:16:45;96336.19;;;6.00;100.00
11038;BME280;5572;49.540;11.932;2023-03-13T01:19:13;96335.91;;;6.01;100.00
11038;BME280;5572;49.540;11.932;2023-03-13T01:21:41;96339.13;;;6.03;100.00
11038;BME280;5572;49.540;11.932;2023-03-13T01:24:08;96341.84;;;6.18;100.00
11038;BME280;5572;49.540;11.932;2023-03-13T01:26:35;96339.41;;;6.17;100.00
11038;BME280;5572;49.540;11.932;2023-03-13T01:29:03;96344.78;;;6.12;100.00
11038;BME280;5572;49.540;11.932;2023-03-13T01:31:31;96336.72;;;6.17;100.00
11038;BME280;5572;49.540;11.932;2023-03-13T01:34:00;96334.56;;;6.14;100.00
11038;BME280;5572;49.540;11.932;2023-03-13T01:36:27;96314.19;;;6.18;100.00
11038;BME280;5572;49.540;11.932;2023-03-13T01:38:55;96324.94;;;6.23;100.00
11038;BME280;5572;49.540;11.932;2023-03-13T01:41:23;96306.69;;;6.20;100.00
11038;BME280;5572;49.540;11.932;2023-03-13T01:43:49;96310.19;;;6.25;100.00
11038;BME280;5572;49.540;11.932;2023-03-13T01:46:18;96320.09;;;6.15;100.00
11038;BME280;5572;49.540;11.932;2023-03-13T01:48:49;96305.59;;;6.06;100.00
11038;BME280;5572;49.540;11.932;2023-03-13T01:51:20;96302.94;;;6.21;100.00
11038;BME280;5572;49.540;11.932;2023-03-13T01:53:51;96302.66;;;6.17;100.00
11038;BME280;5572;49.540;11.932;2023-03-13T01:56:21;96300.25;;;6.26;100.00
11038;BME280;5572;49.540;11.932;2023-03-13T01:58:52;96290.84;;;6.03;100.00
11038;BME280;5572;49.540;11.932;2023-03-13T02:01:20;96293.53;;;6.13;100.00
11038;BME280;5572;49.540;11.932;2023-03-13T02:03:48;96297.00;;;6.14;100.00
11038;BME280;5572;49.540;11.932;2023-03-13T02:06:15;96290.84;;;6.13;100.00
11038;BME280;5572;49.540;11.932;2023-03-13T02:08:45;96278.44;;;5.73;100.00
11038;BME280;5572;49.540;11.932;2023-03-13T02:11:22;96281.06;;;5.43;100.00
11038;BME280;5572;49.540;11.932;2023-03-13T02:13:52;96289.91;;;5.48;100.00
11038;BME280;5572;49.540;11.932;2023-03-13T02:16:20;96286.44;;;5.53;100.00
11038;BME280;5572;49.540;11.932;2023-03-13T02:18:48;96284.66;;;5.83;100.00
11038;BME280;5572;49.540;11.932;2023-03-13T02:21:20;96270.63;;;5.56;100.00
11038;BME280;5572;49.540;11.932;2023-03-13T02:23:53;96286.97;;;5.45;100.00
11038;BME280;5572;49.540;11.932;2023-03-13T02:26:23;96289.59;;;5.35;100.00
11038;BME280;5572;49.540;11.932;2023-03-13T02:28:49;96298.41;;;5.25;100.00
11038;BME280;5572;49.540;11.932;2023-03-13T02:31:16;96295.78;;;5.40;100.00
11038;BME280;5572;49.540;11.932;2023-03-13T02:33:42;96284.75;;;5.27;100.00
11038;BME280;5572;49.540;11.932;2023-03-13T02:36:10;96285.06;;;5.45;100.00
11038;BME280;5572;49.540;11.932;2023-03-13T02:38:40;96269.47;;;5.27;100.00
11038;BME280;5572;49.540;11.932;2023-03-13T02:41:10;96266.59;;;5.39;100.00
11038;BME280;5572;49.540;11.932;2023-03-13T02:43:39;96256.78;;;4.98;100.00
11038;BME280;5572;49.540;11.932;2023-03-13T02:46:08;96258.66;;;4.98;100.00
11038;BME280;5572;49.540;11.932;2023-03-13T02:48:37;96256.00;;;5.03;100.00
11038;BME280;5572;49.540;11.932;2023-03-13T02:51:08;96244.50;;;5.12;100.00
11038;BME280;5572;49.540;11.932;2023-03-13T02:53:37;96239.19;;;5.22;100.00
11038;BME280;5572;49.540;11.932;2023-03-13T02:56:05;96244.00;;;5.15;100.00
11038;BME280;5572;49.540;11.932;2023-03-13T02:58:41;96238.63;;;5.20;100.00
11038;BME280;5572;49.540;11.932;2023-03-13T03:01:08;96226.38;;;5.29;100.00
11038;BME280;5572;49.540;11.932;2023-03-13T03:03:35;96243.53;;;5.38;100.00
11038;BME280;5572;49.540;11.932;2023-03-13T03:06:04;96224.00;;;5.52;100.00
11038;BME280;5572;49.540;11.932;2023-03-13T03:08:31;96216.47;;;5.49;100.00
11038;BME280;5572;49.540;11.932;2023-03-13T03:10:58;96215.66;;;5.34;100.00
11038;BME280;5572;49.540;11.932;2023-03-13T03:13:27;96204.91;;;5.24;100.00
11038;BME280;5572;49.540;11.932;2023-03-13T03:15:56;96194.72;;;5.31;100.00
11038;BME280;5572;49.540;11.932;2023-03-13T03:18:22;96205.47;;;5.51;100.00
11038;BME280;5572;49.540;11.932;2023-03-13T03:20:49;96209.75;;;5.27;100.00
11038;BME280;5572;49.540;11.932;2023-03-13T03:23:16;96214.06;;;5.43;100.00
11038;BME280;5572;49.540;11.932;2023-03-13T03:25:43;96192.09;;;5.56;100.00
11038;BME280;5572;49.540;11.932;2023-03-13T03:28:10;96183.75;;;5.37;100.00
11038;BME280;5572;49.540;11.932;2023-03-13T03:30:37;96185.41;;;5.53;100.00
11038;BME280;5572;49.540;11.932;2023-03-13T03:33:07;96182.72;;;5.43;100.00
11038;BME280;5572;49.540;11.932;2023-03-13T03:35:34;96188.84;;;5.34;100.00
11038;BME280;5572;49.540;11.932;2023-03-13T03:38:03;96179.75;;;5.45;100.00
11038;BME280;5572;49.540;11.932;2023-03-13T03:40:30;96180.03;;;5.48;100.00
11038;BME280;5572;49.540;11.932;2023-03-13T03:42:57;96177.38;;;5.88;100.00
11038;BME280;5572;49.540;11.932;2023-03-13T03:45:24;96170.97;;;5.79;100.00
11038;BME280;5572;49.540;11.932;2023-03-13T03:47:50;96162.63;;;5.81;100.00
11038;BME280;5572;49.540;11.932;2023-03-13T03:50:19;96155.09;;;5.73;100.00
11038;BME280;5572;49.540;11.932;2023-03-13T03:52:46;96151.66;;;5.92;100.00
11038;BME280;5572;49.540;11.932;2023-03-13T03:55:12;96135.81;;;5.91;100.00
11038;BME280;5572;49.540;11.932;2023-03-13T03:57:39;96135.53;;;6.07;100.00
11038;BME280;5572;49.540;11.932;2023-03-13T04:00:07;96143.56;;;6.07;100.00
11038;BME280;5572;49.540;11.932;2023-03-13T04:02:35;96142.78;;;6.01;100.00
11038;BME280;5572;49.540;11.932;2023-03-13T04:05:02;96115.97;;;5.87;100.00
11038;BME280;5572;49.540;11.932;2023-03-13T04:07:30;96144.09;;;6.19;100.00
11038;BME280;5572;49.540;11.932;2023-03-13T04:09:57;96138.66;;;6.34;100.00
11038;BME280;5572;49.540;11.932;2023-03-13T04:12:24;96141.38;;;6.24;100.00
11038;BME280;5572;49.540;11.932;2023-03-13T04:14:51;96132.81;;;6.17;100.00
11038;BME280;5572;49.540;11.932;2023-03-13T04:17:17;96135.41;;;6.52;100.00
11038;BME280;5572;49.540;11.932;2023-03-13T04:19:44;96127.84;;;6.64;100.00
11038;BME280;5572;49.540;11.932;2023-03-13T04:22:11;96110.97;;;6.58;100.00
11038;BME280;5572;49.540;11.932;2023-03-13T04:24:40;96121.13;;;6.66;100.00
11038;BME280;5572;49.540;11.932;2023-03-13T04:27:06;96105.25;;;6.65;100.00
11038;BME280;5572;49.540;11.932;2023-03-13T04:29:33;96090.81;;;6.61;100.00
11038;BME280;5572;49.540;11.932;2023-03-13T04:32:00;96081.69;;;6.57;100.00
11038;BME280;5572;49.540;11.932;2023-03-13T04:34:28;96079.72;;;6.72;100.00
11038;BME280;5572;49.540;11.932;2023-03-13T04:36:55;96079.38;;;6.88;100.00
11038;BME280;5572;49.540;11.932;2023-03-13T04:39:22;96073.22;;;6.83;100.00
11038;BME280;5572;49.540;11.932;2023-03-13T04:41:56;96075.13;;;6.82;100.00
11038;BME280;5572;49.540;11.932;2023-03-13T04:44:23;96070.22;;;6.89;100.00
11038;BME280;5572;49.540;11.932;2023-03-13T04:46:49;96057.53;;;7.00;100.00
11038;BME280;5572;49.540;11.932;2023-03-13T04:49:16;96046.34;;;6.88;100.00
11038;BME280;5572;49.540;11.932;2023-03-13T04:51:43;96038.53;;;6.86;100.00
11038;BME280;5572;49.540;11.932;2023-03-13T04:54:11;96027.03;;;6.81;100.00
11038;BME280;5572;49.540;11.932;2023-03-13T04:56:38;96034.72;;;6.97;100.00
11038;BME280;5572;49.540;11.932;2023-03-13T04:59:06;96020.50;;;6.92;100.00
11038;BME280;5572;49.540;11.932;2023-03-13T05:01:32;96016.44;;;6.99;100.00
11038;BME280;5572;49.540;11.932;2023-03-13T05:03:59;96009.28;;;6.85;100.00
11038;BME280;5572;49.540;11.932;2023-03-13T05:06:25;96007.91;;;6.87;100.00
11038;BME280;5572;49.540;11.932;2023-03-13T05:08:52;96005.00;;;6.84;100.00
11038;BME280;5572;49.540;11.932;2023-03-13T05:11:21;96008.75;;;6.88;100.00
11038;BME280;5572;49.540;11.932;2023-03-13T05:13:51;96006.81;;;6.93;100.00
11038;BME280;5572;49.540;11.932;2023-03-13T05:16:19;95992.63;;;6.88;100.00
11038;BME280;5572;49.540;11.932;2023-03-13T05:18:45;95982.19;;;6.82;100.00
11038;BME280;5572;49.540;11.932;2023-03-13T05:21:12;95974.66;;;6.83;100.00
11038;BME280;5572;49.540;11.932;2023-03-13T05:23:40;95971.38;;;6.86;100.00
11038;BME280;5572;49.540;11.932;2023-03-13T05:26:07;95972.41;;;6.95;100.00
11038;BME280;5572;49.540;11.932;2023-03-13T05:28:33;95956.09;;;6.87;100.00
11038;BME280;5572;49.540;11.932;2023-03-13T05:31:01;95954.16;;;6.92;100.00
11038;BME280;5572;49.540;11.932;2023-03-13T05:33:33;95960.63;;;6.91;100.00
11038;BME280;5572;49.540;11.932;2023-03-13T05:36:00;95939.44;;;6.85;100.00
11038;BME280;5572;49.540;11.932;2023-03-13T05:38:27;95947.19;;;6.91;100.00
11038;BME280;5572;49.540;11.932;2023-03-13T05:40:55;95960.13;;;6.84;100.00
11038;BME280;5572;49.540;11.932;2023-03-13T05:43:21;95959.63;;;6.82;100.00
11038;BME280;5572;49.540;11.932;2023-03-13T05:45:48;95961.72;;;6.85;100.00
11038;BME280;5572;49.540;11.932;2023-03-13T05:48:15;95970.28;;;6.92;100.00
11038;BME280;5572;49.540;11.932;2023-03-13T05:50:43;95967.69;;;6.82;100.00
11038;BME280;5572;49.540;11.932;2023-03-13T05:53:14;95957.72;;;6.83;100.00
11038;BME280;5572;49.540;11.932;2023-03-13T05:55:43;95955.34;;;6.82;100.00
11038;BME280;5572;49.540;11.932;2023-03-13T05:58:11;95961.78;;;6.81;100.00
11038;BME280;5572;49.540;11.932;2023-03-13T06:00:40;95950.50;;;6.79;100.00
11038;BME280;5572;49.540;11.932;2023-03-13T06:03:07;95954.81;;;6.75;100.00
11038;BME280;5572;49.540;11.932;2023-03-13T06:05:34;95944.66;;;6.72;100.00
11038;BME280;5572;49.540;11.932;2023-03-13T06:08:02;95969.28;;;6.83;100.00
11038;BME280;5572;49.540;11.932;2023-03-13T06:10:29;95954.50;;;6.81;100.00
11038;BME280;5572;49.540;11.932;2023-03-13T06:12:57;95963.88;;;6.88;100.00
11038;BME280;5572;49.540;11.932;2023-03-13T06:15:24;95959.63;;;6.82;100.00
11038;BME280;5572;49.540;11.932;2023-03-13T06:17:50;95955.28;;;6.86;100.00
11038;BME280;5572;49.540;11.932;2023-03-13T06:20:17;95958.97;;;6.95;100.00
11038;BME280;5572;49.540;11.932;2023-03-13T06:22:56;95963.84;;;6.93;100.00
11038;BME280;5572;49.540;11.932;2023-03-13T06:25:24;95987.56;;;7.15;100.00
11038;BME280;5572;49.540;11.932;2023-03-13T06:27:59;95984.31;;;7.18;100.00
11038;BME280;5572;49.540;11.932;2023-03-13T06:30:26;95968.00;;;7.09;100.00
11038;BME280;5572;49.540;11.932;2023-03-13T06:32:52;95976.34;;;7.08;100.00
11038;BME280;5572;49.540;11.932;2023-03-13T06:35:19;95978.44;;;7.11;100.00
11038;BME280;5572;49.540;11.932;2023-03-13T06:37:46;95968.03;;;7.04;100.00
11038;BME280;5572;49.540;11.932;2023-03-13T06:40:13;95971.28;;;7.01;100.00
11038;BME280;5572;49.540;11.932;2023-03-13T06:42:42;95973.06;;;7.11;100.00
11038;BME280;5572;49.540;11.932;2023-03-13T06:45:09;95969.63;;;7.05;100.00
11038;BME280;5572;49.540;11.932;2023-03-13T06:47:36;95975.22;;;7.09;100.00
11038;BME280;5572;49.540;11.932;2023-03-13T06:50:03;95972.81;;;7.12;100.00
11038;BME280;5572;49.540;11.932;2023-03-13T06:52:31;95980.06;;;7.12;100.00
11038;BME280;5572;49.540;11.932;2023-03-13T06:54:58;95980.59;;;7.09;100.00
11038;BME280;5572;49.540;11.932;2023-03-13T06:57:25;95998.25;;;7.20;100.00
11038;BME280;5572;49.540;11.932;2023-03-13T07:00:06;95998.78;;;7.22;100.00
11038;BME280;5572;49.540;11.932;2023-03-13T07:02:33;95999.69;;;7.12;100.00
11038;BME280;5572;49.540;11.932;2023-03-13T07:05:02;96023.03;;;7.17;100.00
11038;BME280;5572;49.540;11.932;2023-03-13T07:07:30;96011.53;;;7.06;100.00
11038;BME280;5572;49.540;11.932;2023-03-13T07:10:01;96031.34;;;7.15;100.00
11038;BME280;5572;49.540;11.932;2023-03-13T07:12:29;96029.75;;;7.14;100.00
11038;BME280;5572;49.540;11.932;2023-03-13T07:14:55;96014.72;;;7.13;100.00
11038;BME280;5572;49.540;11.932;2023-03-13T07:17:23;96021.41;;;7.16;100.00
11038;BME280;5572;49.540;11.932;2023-03-13T07:19:55;96014.19;;;7.11;100.00
11038;BME280;5572;49.540;11.932;2023-03-13T07:22:22;96014.72;;;7.13;100.00
11038;BME280;5572;49.540;11.932;2023-03-13T07:24:51;96002.88;;;7.14;100.00
11038;BME280;5572;49.540;11.932;2023-03-13T07:27:17;95991.00;;;7.20;100.00
11038;BME280;5572;49.540;11.932;2023-03-13T07:29:45;96003.59;;;7.25;100.00
11038;BME280;5572;49.540;11.932;2023-03-13T07:32:11;96000.16;;;7.19;100.00
11038;BME280;5572;49.540;11.932;2023-03-13T07:34:39;96012.13;;;7.32;100.00
11038;BME280;5572;49.540;11.932;2023-03-13T07:37:09;96015.06;;;7.35;100.00
11038;BME280;5572;49.540;11.932;2023-03-13T07:39:35;96027.41;;;7.36;100.00
11038;BME280;5572;49.540;11.932;2023-03-13T07:42:02;96029.69;;;7.53;100.00
11038;BME280;5572;49.540;11.932;2023-03-13T07:44:30;96037.63;;;7.68;100.00
11038;BME280;5572;49.540;11.932;2023-03-13T07:46:58;96029.97;;;7.79;100.00
11038;BME280;5572;49.540;11.932;2023-03-13T07:49:25;96036.81;;;7.95;100.00
11038;BME280;5572;49.540;11.932;2023-03-13T07:51:53;96054.50;;;8.01;100.00
11038;BME280;5572;49.540;11.932;2023-03-13T07:54:25;96047.22;;;8.02;100.00
11038;BME280;5572;49.540;11.932;2023-03-13T07:56:52;96036.81;;;7.95;100.00
11038;BME280;5572;49.540;11.932;2023-03-13T07:59:18;96039.75;;;7.94;100.00
11038;BME280;5572;49.540;11.932;2023-03-13T08:01:45;96044.78;;;8.05;100.00
11038;BME280;5572;49.540;11.932;2023-03-13T08:04:13;96041.31;;;8.00;100.00
11038;BME280;5572;49.540;11.932;2023-03-13T08:06:40;96040.81;;;7.98;100.00
11038;BME280;5572;49.540;11.932;2023-03-13T08:09:08;96043.63;;;8.11;100.00
11038;BME280;5572;49.540;11.932;2023-03-13T08:11:34;96058.31;;;8.24;100.00
11038;BME280;5572;49.540;11.932;2023-03-13T08:14:01;96036.13;;;8.08;100.00
11038;BME280;5572;49.540;11.932;2023-03-13T08:16:29;96070.75;;;8.43;100.00
11038;BME280;5572;49.540;11.932;2023-03-13T08:18:58;96061.38;;;8.59;100.00
11038;BME280;5572;49.540;11.932;2023-03-13T08:21:26;96051.94;;;8.61;100.00
11038;BME280;5572;49.540;11.932;2023-03-13T08:23:54;96030.31;;;8.85;100.00
11038;BME280;5572;49.540;11.932;2023-03-13T08:26:25;96029.03;;;8.82;100.00
11038;BME280;5572;49.540;11.932;2023-03-13T08:28:53;96007.31;;;8.74;100.00
11038;BME280;5572;49.540;11.932;2023-03-13T08:31:21;96012.47;;;8.89;100.00
11038;BME280;5572;49.540;11.932;2023-03-13T08:33:48;95995.66;;;8.97;100.00
11038;BME280;5572;49.540;11.932;2023-03-13T08:36:16;95999.19;;;9.11;100.00
11038;BME280;5572;49.540;11.932;2023-03-13T08:38:43;95990.31;;;9.10;100.00
11038;BME280;5572;49.540;11.932;2023-03-13T08:41:10;95983.88;;;9.25;100.00
11038;BME280;5572;49.540;11.932;2023-03-13T08:43:38;95964.31;;;9.33;100.00
11038;BME280;5572;49.540;11.932;2023-03-13T08:46:05;95927.75;;;9.27;100.00
11038;BME280;5572;49.540;11.932;2023-03-13T08:48:31;95925.34;;;9.25;100.00
11038;BME280;5572;49.540;11.932;2023-03-13T08:51:02;95916.19;;;9.39;100.00
11038;BME280;5572;49.540;11.932;2023-03-13T08:53:30;95906.78;;;9.37;100.00
11038;BME280;5572;49.540;11.932;2023-03-13T08:55:57;95906.72;;;9.42;100.00
11038;BME280;5572;49.540;11.932;2023-03-13T08:58:24;95892.41;;;9.41;100.00
11038;BME280;5572;49.540;11.932;2023-03-13T09:00:51;95869.03;;;9.37;100.00
11038;BME280;5572;49.540;11.932;2023-03-13T09:03:18;95861.56;;;9.47;100.00
11038;BME280;5572;49.540;11.932;2023-03-13T09:05:46;95848.59;;;9.63;100.00
11038;BME280;5572;49.540;11.932;2023-03-13T09:08:15;95841.78;;;9.65;100.00
11038;BME280;5572;49.540;11.932;2023-03-13T09:10:43;95832.19;;;9.73;100.00
11038;BME280;5572;49.540;11.932;2023-03-13T09:13:10;95843.34;;;10.07;100.00
11038;BME280;5572;49.540;11.932;2023-03-13T09:15:39;95850.91;;;10.31;100.00
11038;BME280;5572;49.540;11.932;2023-03-13T09:18:14;95864.88;;;10.47;100.00
11038;BME280;5572;49.540;11.932;2023-03-13T09:20:42;95856.91;;;10.28;100.00
11038;BME280;5572;49.540;11.932;2023-03-13T09:23:08;95858.38;;;10.34;100.00
11038;BME280;5572;49.540;11.932;2023-03-13T09:25:39;95864.75;;;10.52;100.00
11038;BME280;5572;49.540;11.932;2023-03-13T09:28:06;95860.03;;;10.57;100.00
11038;BME280;5572;49.540;11.932;2023-03-13T09:30:32;95848.66;;;10.69;100.00
11038;BME280;5572;49.540;11.932;2023-03-13T09:32:59;95841.97;;;10.88;100.00
11038;BME280;5572;49.540;11.932;2023-03-13T09:35:27;95821.91;;;11.11;100.00
11038;BME280;5572;49.540;11.932;2023-03-13T09:37:53;95816.38;;;10.94;100.00
11038;BME280;5572;49.540;11.932;2023-03-13T09:40:28;95808.91;;;10.91;100.00
11038;BME280;5572;49.540;11.932;2023-03-13T09:42:58;95798.13;;;11.00;100.00
11038;BME280;5572;49.540;11.932;2023-03-13T09:45:30;95767.66;;;11.16;100.00
11038;BME280;5572;49.540;11.932;2023-03-13T09:48:01;95754.69;;;11.26;100.00
11038;BME280;5572;49.540;11.932;2023-03-13T09:50:33;95728.09;;;11.28;100.00
11038;BME280;5572;49.540;11.932;2023-03-13T09:53:03;95699.34;;;11.49;100.00
11038;BME280;5572;49.540;11.932;2023-03-13T09:55:38;95680.31;;;11.63;100.00
11038;BME280;5572;49.540;11.932;2023-03-13T09:58:10;95655.16;;;11.96;100.00
11038;BME280;5572;49.540;11.932;2023-03-13T10:00:40;95629.16;;;12.03;100.00
11038;BME280;5572;49.540;11.932;2023-03-13T10:03:12;95618.47;;;12.24;100.00
11038;BME280;5572;49.540;11.932;2023-03-13T10:05:46;95587.53;;;12.25;100.00
11038;BME280;5572;49.540;11.932;2023-03-13T10:08:16;95532.66;;;11.91;100.00
11038;BME280;5572;49.540;11.932;2023-03-13T10:10:45;95540.25;;;12.14;100.00
11038;BME280;5572;49.540;11.932;2023-03-13T10:13:19;95529.03;;;12.32;100.00
11038;BME280;5572;49.540;11.932;2023-03-13T10:15:50;95507.72;;;12.51;100.00
11038;BME280;5572;49.540;11.932;2023-03-13T10:18:20;95481.06;;;12.53;100.00
11038;BME280;5572;49.540;11.932;2023-03-13T10:20:50;95477.00;;;12.39;100.00
11038;BME280;5572;49.540;11.932;2023-03-13T10:23:21;95457.13;;;12.35;100.00
11038;BME280;5572;49.540;11.932;2023-03-13T10:25:51;95451.25;;;12.24;100.00
11038;BME280;5572;49.540;11.932;2023-03-13T10:28:18;95444.91;;;12.49;100.00
11038;BME280;5572;49.540;11.932;2023-03-13T10:30:48;95425.25;;;12.32;100.00
11038;BME280;5572;49.540;11.932;2023-03-13T10:33:22;95380.00;;;12.32;100.00
11038;BME280;5572;49.540;11.932;2023-03-13T10:36:02;95349.13;;;12.45;100.00
11038;BME280;5572;49.540;11.932;2023-03-13T10:38:32;95315.41;;;12.14;100.00
11038;BME280;5572;49.540;11.932;2023-03-13T10:41:00;95274.91;;;12.17;100.00
11038;BME280;5572;49.540;11.932;2023-03-13T10:43:28;95235.25;;;12.13;100.00
11038;BME280;5572;49.540;11.932;2023-03-13T10:45:55;95211.66;;;12.13;100.00
11038;BME280;5572;49.540;11.932;2023-03-13T10:48:23;95213.66;;;12.04;100.00
11038;BME280;5572;49.540;11.932;2023-03-13T10:50:52;95202.81;;;12.25;100.00
11038;BME280;5572;49.540;11.932;2023-03-13T10:53:32;95187.28;;;12.13;100.00
11038;BME280;5572;49.540;11.932;2023-03-13T10:56:03;95166.88;;;12.16;100.00
11038;BME280;5572;49.540;11.932;2023-03-13T10:58:40;95158.34;;;12.26;100.00
11038;BME280;5572;49.540;11.932;2023-03-13T11:01:18;95193.34;;;12.31;100.00
11038;BME280;5572;49.540;11.932;2023-03-13T11:03:50;95179.25;;;12.37;100.00
11038;BME280;5572;49.540;11.932;2023-03-13T11:06:27;95156.94;;;12.20;100.00
11038;BME280;5572;49.540;11.932;2023-03-13T11:09:02;95140.81;;;12.23;100.00
11038;BME280;5572;49.540;11.932;2023-03-13T11:11:29;95136.31;;;12.27;100.00
11038;BME280;5572;49.540;11.932;2023-03-13T11:14:07;94880.19;;;12.42;100.00
11038;BME280;5572;49.540;11.932;2023-03-13T11:16:38;94886.03;;;12.56;100.00
11038;BME280;5572;49.540;11.932;2023-03-13T11:19:23;94873.34;;;12.72;100.00
11038;BME280;5572;49.540;11.932;2023-03-13T11:22:14;94889.59;;;12.72;100.00
11038;BME280;5572;49.540;11.932;2023-03-13T11:24:50;94870.16;;;12.82;100.00
11038;BME280;5572;49.540;11.932;2023-03-13T11:27:28;94871.38;;;12.96;100.00
11038;BME280;5572;49.540;11.932;2023-03-13T11:30:10;94873.00;;;13.12;100.00
11038;BME280;5572;49.540;11.932;2023-03-13T11:32:46;94878.44;;;13.12;100.00
11038;BME280;5572;49.540;11.932;2023-03-13T11:35:21;94892.28;;;13.23;100.00
11038;BME280;5572;49.540;11.932;2023-03-13T11:37:54;94887.28;;;13.25;100.00
11038;BME280;5572;49.540;11.932;2023-03-13T11:40:27;94891.50;;;13.22;100.00
11038;BME280;5572;49.540;11.932;2023-03-13T11:43:06;94879.09;;;13.37;100.00
11038;BME280;5572;49.540;11.932;2023-03-13T11:45:51;94869.13;;;13.41;100.00
11038;BME280;5572;49.540;11.932;2023-03-13T11:48:40;94836.28;;;13.30;100.00
11038;BME280;5572;49.540;11.932;2023-03-13T11:51:16;94848.66;;;13.59;100.00
11038;BME280;5572;49.540;11.932;2023-03-13T11:54:11;94864.16;;;13.58;100.00
11038;BME280;5572;49.540;11.932;2023-03-13T11:56:51;94866.97;;;13.62;100.00
11038;BME280;5572;49.540;11.932;2023-03-13T11:59:33;94881.41;;;13.50;100.00
11038;BME280;5572;49.540;11.932;2023-03-13T12:02:08;94894.38;;;13.57;100.00
11038;BME280;5572;49.540;11.932;2023-03-13T12:04:43;94888.19;;;13.87;100.00
11038;BME280;5572;49.540;11.932;2023-03-13T12:07:18;94906.72;;;14.12;100.00
11038;BME280;5572;49.540;11.932;2023-03-13T12:09:48;94902.56;;;14.34;100.00
11038;BME280;5572;49.540;11.932;2023-03-13T12:12:25;94916.91;;;14.50;100.00
11038;BME280;5572;49.540;11.932;2023-03-13T12:14:58;94933.69;;;14.86;100.00
11038;BME280;5572;49.540;11.932;2023-03-13T12:17:30;94950.47;;;14.88;100.00
11038;BME280;5572;49.540;11.932;2023-03-13T12:20:13;94965.88;;;14.99;100.00
11038;BME280;5572;49.540;11.932;2023-03-13T12:22:57;94975.72;;;14.88;100.00
11038;BME280;5572;49.540;11.932;2023-03-13T12:28:58;95020.69;;;15.17;100.00
11038;BME280;5572;49.540;11.932;2023-03-13T12:31:30;95030.09;;;15.19;100.00
11038;BME280;5572;49.540;11.932;2023-03-13T12:34:02;95062.84;;;15.07;100.00
11038;BME280;5572;49.540;11.932;2023-03-13T12:36:36;95081.47;;;15.21;100.00
11038;BME280;5572;49.540;11.932;2023-03-13T12:42:50;95112.41;;;14.82;100.00
11038;BME280;5572;49.540;11.932;2023-03-13T12:45:23;95149.81;;;14.58;100.00
11038;BME280;5572;49.540;11.932;2023-03-13T12:48:27;95164.94;;;14.43;100.00
11038;BME280;5572;49.540;11.932;2023-03-13T12:51:14;95192.13;;;14.43;100.00
11038;BME280;5572;49.540;11.932;2023-03-13T12:54:07;95209.06;;;14.37;100.00
11038;BME280;5572;49.540;11.932;2023-03-13T12:56:46;95216.06;;;14.38;100.00
11038;BME280;5572;49.540;11.932;2023-03-13T12:59:18;95232.28;;;14.34;100.00
11038;BME280;5572;49.540;11.932;2023-03-13T13:01:50;95229.06;;;14.44;100.00
11038;BME280;5572;49.540;11.932;2023-03-13T13:04:19;95228.84;;;14.49;100.00
11038;BME280;5572;49.540;11.932;2023-03-13T13:06:56;95202.06;;;14.78;100.00
11038;BME280;5572;49.540;11.932;2023-03-13T13:09:28;95215.09;;;15.00;100.00
11038;BME280;5572;49.540;11.932;2023-03-13T13:11:58;95218.47;;;15.25;100.00
11038;BME280;5572;49.540;11.932;2023-03-13T13:14:57;95213.22;;;15.32;100.00
11038;BME280;5572;49.540;11.932;2023-03-13T13:18:11;95221.19;;;15.71;100.00